Time;durP1;ratioP1;P1;durP2;ratioP2;P2;SDS_P1;SDS_P2;PMS_P1;PMS_P2;Temp;Humidity;BMP_temperature;BMP_pressure;BME280_temperature;BME280_humidity;BME280_pressure;Samples;Min_cycle;Max_cycle;Signal;HPM_P1;HPM_P2
2023/01/26 00:00:03;;;;;;;0.10;0.10;;;;;;;8.18;66.26;103025.50;7361848;19;20003;-56
2023/01/26 00:02:28;;;;;;;0.00;0.00;;;;;;;8.19;66.14;103023.78;7362660;19;20069;-55
2023/01/26 00:04:54;;;;;;;0.00;0.00;;;;;;;8.21;66.10;103016.88;7360548;19;20082;-54
2023/01/26 00:07:19;;;;;;;0.00;0.00;;;;;;;8.23;65.99;103004.81;7358455;19;20069;-57
2023/01/26 00:09:54;;;;;;;0.00;0.00;;;;;;;8.17;65.87;102971.69;7355384;19;20033;-56
2023/01/26 00:12:19;;;;;;;0.00;0.00;;;;;;;8.22;66.39;102988.31;7358178;19;20754;-56
2023/01/26 00:14:51;;;;;;;0.00;0.00;;;;;;;8.23;65.81;102999.59;7347502;19;20014;-56
2023/01/26 00:17:24;;;;;;;0.00;0.00;;;;;;;8.23;65.81;103020.41;7358481;19;20022;-57
2023/01/26 00:19:54;;;;;;;0.00;0.00;;;;;;;8.21;66.10;103023.00;7358827;19;20014;-57
2023/01/26 00:22:20;;;;;;;0.00;0.00;;;;;;;8.18;66.13;103025.50;7361328;19;20044;-56
2023/01/26 00:24:45;;;;;;;0.03;0.03;;;;;;;8.09;66.04;103000.97;7356729;19;20031;-56
2023/01/26 00:27:10;;;;;;;0.00;0.00;;;;;;;8.16;65.94;103018.50;7358869;19;20014;-57
2023/01/26 00:29:36;;;;;;;0.00;0.00;;;;;;;8.14;65.79;103008.06;7360295;19;20390;-57
2023/01/26 00:32:01;;;;;;;0.00;0.00;;;;;;;8.12;65.85;103019.28;7359162;19;20047;-57
2023/01/26 00:34:27;;;;;;;0.00;0.00;;;;;;;8.09;65.66;103017.47;7358507;19;20007;-56
2023/01/26 00:36:52;;;;;;;0.00;0.00;;;;;;;8.04;65.91;103017.34;7359619;19;20478;-57
2023/01/26 00:39:17;;;;;;;0.00;0.00;;;;;;;8.04;66.21;103025.16;7358605;19;20014;-56
2023/01/26 00:44:27;;;;;;;0.00;0.00;;;;;;;8.01;66.16;103009.50;7355356;19;20774;-56
2023/01/26 00:46:52;;;;;;;0.00;0.00;;;;;;;8.01;65.88;103006.00;7359631;19;20014;-57
2023/01/26 00:49:17;;;;;;;0.00;0.00;;;;;;;7.99;65.81;103003.34;7359013;19;20014;-56
2023/01/26 00:51:43;;;;;;;0.00;0.00;;;;;;;7.98;66.24;102998.13;7360738;19;20484;-56
2023/01/26 00:54:08;;;;;;;0.00;0.00;;;;;;;7.93;65.72;102992.78;7361132;19;20014;-56
2023/01/26 00:56:35;;;;;;;0.00;0.00;;;;;;;7.89;65.96;102983.16;7362455;19;20732;-56
2023/01/26 00:59:00;;;;;;;0.00;0.00;;;;;;;7.92;65.89;102983.25;7359725;19;20015;-55
2023/01/26 01:01:25;;;;;;;0.10;0.10;;;;;;;7.91;66.08;102980.59;7361518;19;20038;-56
2023/01/26 01:03:51;;;;;;;0.00;0.00;;;;;;;7.89;65.96;102977.94;7359273;19;20014;-57
2023/01/26 01:06:16;;;;;;;0.00;0.00;;;;;;;7.86;66.36;102984.81;7361813;19;20466;-57
2023/01/26 01:08:42;;;;;;;0.10;0.10;;;;;;;7.81;66.11;102984.69;7358903;19;20018;-56
2023/01/26 01:11:10;;;;;;;0.10;0.10;;;;;;;7.78;66.32;102982.88;7362840;19;20641;-55
2023/01/26 01:13:35;;;;;;;0.10;0.10;;;;;;;7.87;66.55;102992.66;7358788;19;20006;-54
2023/01/26 01:16:09;;;;;;;0.00;0.00;;;;;;;7.90;66.68;102999.63;7361770;19;20558;-56
2023/01/26 01:18:35;;;;;;;0.10;0.10;;;;;;;7.88;66.39;102991.81;7361740;19;20010;-56
2023/01/26 01:21:09;;;;;;;0.00;0.00;;;;;;;7.93;66.48;102995.41;7361247;19;20081;-55
2023/01/26 01:23:35;;;;;;;0.10;0.10;;;;;;;7.93;66.61;103005.81;7361517;19;20034;-57
2023/01/26 01:26:01;;;;;;;0.00;0.00;;;;;;;7.96;66.14;103007.63;7359671;19;20037;-54
2023/01/26 01:28:27;;;;;;;0.00;0.00;;;;;;;7.98;66.46;103025.00;7362989;19;20036;-56
2023/01/26 01:30:52;;;;;;;0.00;0.00;;;;;;;8.00;66.66;103025.03;7358183;19;20025;-57
2023/01/26 01:33:18;;;;;;;0.10;0.10;;;;;;;7.93;66.24;103008.41;7360838;19;20002;-57
2023/01/26 01:35:43;;;;;;;0.00;0.00;;;;;;;8.04;66.71;103008.66;7359325;19;20010;-55
2023/01/26 01:38:09;;;;;;;0.00;0.00;;;;;;;8.00;66.34;102997.28;7363368;19;20017;-56
2023/01/26 01:40:34;;;;;;;0.00;0.00;;;;;;;8.08;66.52;102997.50;7361913;19;20025;-55
2023/01/26 01:43:00;;;;;;;0.00;0.00;;;;;;;8.09;66.38;102993.16;7361765;19;20650;-56
2023/01/26 01:45:25;;;;;;;0.00;0.00;;;;;;;8.11;66.15;102996.69;7355553;19;20038;-56
2023/01/26 01:47:57;;;;;;;0.10;0.10;;;;;;;8.01;66.03;102975.66;7362113;19;20038;-55
2023/01/26 01:50:24;;;;;;;0.10;0.10;;;;;;;8.15;66.40;102988.09;7356136;19;20010;-55
2023/01/26 01:52:51;;;;;;;0.00;0.00;;;;;;;8.17;66.26;102989.03;7361350;19;20060;-56
2023/01/26 01:55:17;;;;;;;0.10;0.10;;;;;;;8.19;65.86;102987.34;7360706;19;20007;-56
2023/01/26 01:57:50;;;;;;;0.00;0.00;;;;;;;8.22;65.94;102992.63;7358330;19;20075;-55
2023/01/26 02:00:25;;;;;;;0.00;0.00;;;;;;;8.13;66.26;102988.09;7359458;19;20015;-57
2023/01/26 02:03:17;;;;;;;0.00;0.00;;;;;;;8.23;66.24;103005.69;7357731;19;20014;-57
2023/01/26 02:06:04;;;;;;;0.10;0.10;;;;;;;8.26;65.84;103015.25;7354364;19;20024;-55
2023/01/26 02:08:38;;;;;;;0.00;0.00;;;;;;;8.27;65.75;103019.66;7361831;19;20086;-57
2023/01/26 02:11:08;;;;;;;0.00;0.00;;;;;;;8.27;65.98;103015.31;7360671;19;20031;-56
2023/01/26 02:13:34;;;;;;;0.05;0.05;;;;;;;8.13;65.81;102988.09;7359738;19;20010;-55
2023/01/26 02:15:59;;;;;;;0.10;0.10;;;;;;;8.26;66.33;103005.75;7359903;19;20021;-56
2023/01/26 02:18:25;;;;;;;0.00;0.00;;;;;;;8.28;66.24;103008.41;7360377;19;20030;-57
2023/01/26 02:21:03;;;;;;;0.00;0.00;;;;;;;8.26;65.97;102999.66;7357213;19;20060;-56
2023/01/26 02:23:43;;;;;;;;;;;;;;;8.34;65.97;102992.91;7360601;19;20018;-57
2023/01/26 02:26:10;;;;;;;;;;;;;;;8.35;66.02;102986.84;7355749;19;19919;-57
2023/01/26 02:28:35;;;;;;;;;;;;;;;8.37;65.83;102982.63;7360168;19;19972;-56
2023/01/26 02:31:02;;;;;;;;;;;;;;;8.38;65.88;102973.94;7359923;19;20260;-57
2023/01/26 02:33:28;;;;;;;;;;;;;;;8.38;65.81;102984.38;7363444;19;19936;-56
2023/01/26 02:35:53;;;;;;;;;;;;;;;8.39;65.63;102986.13;7357062;19;19943;-57
2023/01/26 02:38:20;;;;;;;;;;;;;;;8.38;65.88;102973.94;7363010;19;19922;-56
2023/01/26 02:40:51;;;;;;;;;;;;;;;8.38;65.46;102963.53;7361548;19;19919;-57
2023/01/26 02:43:17;;;;;;;;;;;;;;;8.38;65.83;102971.34;7363518;19;19951;-56
2023/01/26 02:45:42;;;;;;;;;;;;;;;8.37;65.76;102980.00;7359412;19;19981;-56
2023/01/26 02:48:08;;;;;;;;;;;;;;;8.36;65.26;102980.81;7363164;19;19925;-57
2023/01/26 02:50:33;;;;;;;;;;;;;;;8.35;65.39;102989.47;7363669;19;19925;-55
2023/01/26 02:52:59;;;;;;;;;;;;;;;8.33;65.51;102992.03;7355461;19;19919;-56
2023/01/26 02:55:25;;;;;;;;;;;;;;;8.33;65.80;102985.94;7361381;19;20481;-57
2023/01/26 02:57:58;;;;;;;;;;;;;;;8.32;65.36;102979.00;7353819;19;19930;-57
2023/01/26 03:00:24;;;;;;;;;;;;;;;8.33;65.42;102975.53;7359743;19;20260;-57
2023/01/26 03:02:50;;;;;;;;;;;;;;;8.31;65.51;102983.31;7358175;19;19938;-55
2023/01/26 03:05:16;;;;;;;;;;;;;;;8.30;65.66;102996.28;7359254;19;19929;-55
2023/01/26 03:07:41;;;;;;;;;;;;;;;8.28;65.60;102993.66;7360990;19;19923;-56
2023/01/26 03:10:07;;;;;;;;;;;;;;;8.27;65.51;103001.44;7360056;19;20465;-57
2023/01/26 03:12:32;;;;;;;;;;;;;;;8.26;65.77;103010.06;7361455;19;20334;-54
2023/01/26 03:17:41;;;;;;;;;;;;;;;8.24;65.54;103024.78;7361621;19;19943;-54
2023/01/26 03:28:21;;;;;;;;;;;;;;;8.26;65.61;103023.06;7363942;19;20006;-57
2023/01/26 03:30:50;;;;;;;;;;;;;;;8.27;65.88;103011.84;7366589;19;19919;-56
2023/01/26 03:33:16;;;;;;;;;;;;;;;8.26;65.53;103005.75;7361908;19;20537;-56
2023/01/26 03:35:41;;;;;;;;;;;;;;;8.28;65.66;103013.59;7357493;19;20652;-56
2023/01/26 03:38:06;;;;;;;;;;;;;;;8.29;65.90;103012.75;7365010;19;19978;-56
2023/01/26 03:56:56;;;;;;;;;;;;;;;8.32;65.60;102999.81;7366997;19;20014;-56
2023/01/26 03:59:36;;;;;;;;;;;;;;;8.32;65.72;103015.44;7365175;19;26516;-56
2023/01/26 04:10:13;;;;;;;;;;;;;;;8.32;65.43;103015.44;7366185;19;19946;-56
2023/01/26 04:12:39;;;;;;;;;;;;;;;8.31;65.88;103014.56;7366531;19;21766;-56
2023/01/26 04:23:19;;;;;;;;;;;;;;;8.30;65.54;103023.19;7362785;19;19925;-56
2023/01/26 04:25:45;;;;;;;;;;;;;;;8.30;65.39;103011.91;7363452;19;20660;-57
2023/01/26 04:28:11;;;;;;;;;;;;;;;8.28;65.52;103003.19;7366304;19;19923;-57
2023/01/26 04:30:36;;;;;;;;;;;;;;;8.26;65.52;103005.75;7360829;19;20536;-55
2023/01/26 04:33:01;;;;;;;;;;;;;;;8.23;65.57;103016.09;7366567;19;20042;-57
2023/01/26 04:35:26;;;;;;;;;;;;;;;8.21;64.95;103029.88;7365843;19;19923;-56
2023/01/26 04:37:52;;;;;;;;;;;;;;;8.17;65.04;103041.09;7368058;19;19960;-56
2023/01/26 04:40:17;;;;;;;;;;;;;;;8.13;65.00;103049.66;7364135;19;19922;-56
2023/01/26 04:42:42;;;;;;;;;;;;;;;8.09;65.14;103047.81;7368063;19;19926;-57
2023/01/26 04:45:08;;;;;;;;;;;;;;;8.03;65.14;103048.53;7362067;19;19915;-54
2023/01/26 04:47:34;;;;;;;;;;;;;;;7.98;64.57;103045.81;7365614;19;19970;-57
2023/01/26 04:49:59;;;;;;;;;;;;;;;7.93;65.04;103042.22;7366146;19;20595;-56
2023/01/26 04:52:24;;;;;;;;;;;;;;;7.87;64.61;103036.00;7361040;19;19919;-56
2023/01/26 04:54:49;;;;;;;;;;;;;;;7.80;64.88;103041.00;7365302;19;20712;-57
2023/01/26 04:57:15;;;;;;;;;;;;;;;7.75;64.61;103041.72;7362369;19;20247;-56
2023/01/26 04:59:40;;;;;;;;;;;;;;;7.69;64.72;103044.19;7366470;19;19951;-56
2023/01/26 05:02:05;;;;;;;;;;;;;;;7.63;64.89;103046.63;7362210;19;20324;-55
2023/01/26 05:04:30;;;;;;;;;;;;;;;7.59;65.16;103042.16;7366514;19;19915;-57
2023/01/26 05:06:56;;;;;;;;;;;;;;;7.53;64.69;103040.28;7363703;19;19910;-56
2023/01/26 05:09:21;;;;;;;;;;;;;;;7.49;64.71;103049.72;7361997;19;19926;-57
2023/01/26 05:11:46;;;;;;;;;;;;;;;7.44;64.82;103051.31;7365710;19;20026;-54
2023/01/26 05:14:12;;;;;;;;;;;;;;;7.40;65.03;103057.28;7366767;19;20352;-56
2023/01/26 05:16:37;;;;;;;;;;;;;;;7.37;64.95;103054.59;7363761;19;19935;-57
2023/01/26 05:19:02;;;;;;;;;;;;;;;7.31;64.90;103044.03;7364967;19;20461;-56
2023/01/26 05:21:27;;;;;;;;;;;;;;;7.28;65.25;103049.13;7366809;19;21877;-56
2023/01/26 05:23:53;;;;;;;;;;;;;;;7.24;65.05;103055.06;7364588;19;19923;-56
2023/01/26 05:26:18;;;;;;;;;;;;;;;7.19;65.35;103054.03;7361255;19;19919;-57
2023/01/26 05:28:44;;;;;;;;;;;;;;;7.15;65.04;103053.09;7364407;19;19927;-57
2023/01/26 05:31:09;;;;;;;;;;;;;;;7.11;65.09;103045.16;7365397;19;19918;-56
2023/01/26 05:33:34;;;;;;;;;;;;;;;7.08;65.38;103039.88;7362235;19;20826;-56
2023/01/26 05:36:03;;;;;;;;;;;;;;;7.06;65.29;103038.97;7365968;19;20676;-57
2023/01/26 05:38:28;;;;;;;;;;;;;;;7.00;65.29;103035.34;7364664;19;19918;-53
2023/01/26 05:40:53;;;;;;;;;;;;;;;6.97;64.98;103040.44;7365968;19;22382;-57
2023/01/26 05:43:18;;;;;;;;;;;;;;;6.94;65.24;103047.25;7361631;19;20331;-56
2023/01/26 05:45:43;;;;;;;;;;;;;;;6.90;65.24;103040.22;7362620;19;19915;-57
2023/01/26 05:48:09;;;;;;;;;;;;;;;6.86;65.54;103049.63;7357434;19;19915;-57
2023/01/26 05:50:34;;;;;;;;;;;;;;;6.82;65.54;103042.56;7364698;19;20014;-54
2023/01/26 05:53:01;;;;;;;;;;;;;;;6.79;65.46;103046.78;7363852;19;19939;-56
2023/01/26 05:55:27;;;;;;;;;;;;;;;6.74;65.07;103037.16;7365813;19;19978;-56
2023/01/26 05:57:52;;;;;;;;;;;;;;;6.72;65.05;103045.72;7361616;19;19932;-56
2023/01/26 06:00:17;;;;;;;;;;;;;;;6.68;65.44;103062.03;7362390;19;19933;-56
2023/01/26 06:02:43;;;;;;;;;;;;;;;6.66;65.18;103059.41;7359029;19;19935;-56
2023/01/26 06:05:08;;;;;;;;;;;;;;;6.62;65.18;103064.44;7360704;19;19959;-56
2023/01/26 06:07:34;;;;;;;;;;;;;;;6.60;65.27;103066.13;7360086;19;19918;-56
2023/01/26 06:09:59;;;;;;;;;;;;;;;6.56;65.60;103059.06;7362583;19;19914;-56
2023/01/26 06:12:24;;;;;;;;;;;;;;;6.53;65.54;103066.75;7363073;19;19918;-56
2023/01/26 06:14:49;;;;;;;;;;;;;;;6.49;65.71;103078.75;7360708;19;19993;-57
2023/01/26 06:17:15;;;;;;;;;;;;;;;6.47;65.27;103072.63;7362811;19;19915;-57
2023/01/26 06:19:41;;;;;;;;;;;;;;;6.45;65.41;103079.50;7360391;19;19971;-56
2023/01/26 06:22:07;;;;;;;;;;;;;;;6.42;65.66;103075.06;7362738;19;20331;-57
2023/01/26 06:24:33;;;;;;;;;;;;;;;6.40;65.78;103074.16;7362458;19;20304;-55
2023/01/26 06:26:58;;;;;;;;;;;;;;;6.40;65.70;103068.97;7363146;19;20384;-56
2023/01/26 06:29:23;;;;;;;;;;;;;;;6.38;65.36;103068.00;7361095;19;19921;-56
2023/01/26 06:31:49;;;;;;;;;;;;;;;6.38;65.92;103064.53;7360255;19;20003;-56
2023/01/26 06:34:14;;;;;;;;;;;;;;;6.35;65.83;103070.53;7357257;19;19918;-57
2023/01/26 06:36:40;;;;;;;;;;;;;;;6.34;65.55;103067.88;7362867;19;19915;-56
2023/01/26 06:39:06;;;;;;;;;;;;;;;6.32;65.78;103073.00;7362575;19;20364;-56
2023/01/26 06:41:31;;;;;;;;;;;;;;;6.31;65.94;103073.84;7362508;19;19930;-56
2023/01/26 06:43:57;;;;;;;;;;;;;;;6.32;65.65;103080.78;7362535;19;20714;-56
2023/01/26 06:46:22;;;;;;;;;;;;;;;6.33;65.86;103079.94;7362335;19;19931;-57
2023/01/26 06:48:47;;;;;;;;;;;;;;;6.34;65.78;103080.88;7361961;19;19919;-56
2023/01/26 06:51:15;;;;;;;;;;;;;;;6.35;66.15;103086.09;7359968;19;19986;-54
2023/01/26 06:53:54;;;;;;;;;;;;;;;6.37;65.89;103086.13;7360703;19;20253;-57
2023/01/26 06:56:19;;;;;;;;;;;;;;;6.39;66.15;103087.97;7362807;19;19918;-57
2023/01/26 06:58:45;;;;;;;;;;;;;;;6.42;66.22;103088.03;7349383;19;19942;-56
2023/01/26 07:01:24;;;;;;;;;;;;;;;6.44;66.33;103086.41;7361679;19;20272;-56
2023/01/26 07:03:50;;;;;;;;;;;;;;;6.48;66.04;103092.56;7360107;19;19914;-57
2023/01/26 07:06:16;;;;;;;;;;;;;;;6.49;66.42;103095.22;7352655;19;20331;-56
2023/01/26 07:08:41;;;;;;;;;;;;;;;6.53;66.17;103092.69;7360924;19;19915;-56
2023/01/26 07:11:07;;;;;;;;;;;;;;;6.56;66.29;103105.78;7361633;19;19923;-54
2023/01/26 07:13:32;;;;;;;;;;;;;;;6.57;66.49;103098.03;7359627;19;19928;-55
2023/01/26 07:16:01;;;;;;;;;;;;;;;6.60;66.35;103108.53;7353941;19;19978;-55
2023/01/26 07:18:26;;;;;;;;;;;;;;;6.62;66.34;103116.38;7358880;19;19940;-57
2023/01/26 07:20:52;;;;;;;;;;;;;;;6.64;66.45;103119.88;7354610;19;19926;-54
2023/01/26 07:23:17;;;;;;;;;;;;;;;6.67;66.43;103125.19;7351855;19;20549;-56
2023/01/26 07:25:43;;;;;;;;;;;;;;;6.59;66.10;103111.06;7350619;19;21704;-57
2023/01/26 07:28:09;;;;;;;;;;;;;;;6.69;66.41;103123.50;7358972;19;19930;-56
2023/01/26 07:30:34;;;;;;;;;;;;;;;6.71;66.12;103129.66;7358427;19;20638;-57
2023/01/26 07:33:00;;;;;;;;;;;;;;;6.72;66.18;103131.41;7348666;19;19926;-56
2023/01/26 07:35:25;;;;;;;;;;;;;;;6.74;66.13;103124.53;7348816;19;19932;-56
2023/01/26 07:37:50;;;;;;;;;;;;;;;6.75;66.09;103118.53;7351947;19;19942;-56
2023/01/26 07:40:15;;;;;;;;;;;;;;;6.78;66.05;103112.53;7356943;19;19950;-56
2023/01/26 07:42:41;;;;;;;;;;;;;;;6.78;66.45;103113.41;7360724;19;19939;-55
2023/01/26 07:45:06;;;;;;;;;;;;;;;6.79;66.10;103117.78;7340853;19;19919;-57
2023/01/26 07:47:32;;;;;;;;;;;;;;;6.80;66.44;103119.56;7350468;19;19936;-56
2023/01/26 07:49:57;;;;;;;;;;;;;;;6.80;66.21;103122.16;7357417;19;19935;-56
2023/01/26 07:52:24;;;;;;;;;;;;;;;6.80;66.13;103122.16;7357721;19;19926;-56
2023/01/26 07:54:50;;;;;;;;;;;;;;;6.81;65.99;103131.72;7351620;19;19921;-56
2023/01/26 07:57:15;;;;;;;;;;;;;;;6.81;66.20;103131.72;7354354;19;19922;-57
2023/01/26 07:59:40;;;;;;;;;;;;;;;6.82;66.38;103130.88;7356745;19;19931;-55
2023/01/26 08:02:08;;;;;;;;;;;;;;;6.82;66.22;103130.88;7357381;19;19923;-55
2023/01/26 08:04:33;;;;;;;;;;;;;;;6.81;66.09;103129.13;7355930;19;19922;-55
2023/01/26 08:06:58;;;;;;;;;;;;;;;6.81;66.09;103129.13;7356925;19;19915;-56
2023/01/26 08:09:25;;;;;;;;;;;;;;;6.79;66.25;103128.16;7364521;19;19974;-56
2023/01/26 08:11:50;;;;;;;;;;;;;;;6.76;66.03;103125.50;7366793;19;19915;-56
2023/01/26 08:14:15;;;;;;;;;;;;;;;6.75;66.15;103124.59;7361281;19;19925;-57
2023/01/26 08:16:41;;;;;;;;;;;;;;;6.72;66.13;103118.44;7361836;19;19918;-57
2023/01/26 08:19:06;;;;;;;;;;;;;;;6.69;65.62;103121.81;7359401;19;19921;-56
2023/01/26 08:21:31;;;;;;;;;;;;;;;6.66;66.05;103113.94;7365711;19;19929;-57
2023/01/26 08:24:00;;;;;;;;;;;;;;;6.63;65.97;103112.94;7366696;19;19931;-56
2023/01/26 08:26:40;;;;;;;;;;;;;;;6.59;65.85;103118.84;7363333;19;19926;-56
2023/01/26 08:29:06;;;;;;;;;;;;;;;6.54;65.63;103118.72;7358017;19;24743;-56
2023/01/26 08:31:32;;;;;;;;;;;;;;;6.49;65.86;103115.97;7361466;19;20629;-57
2023/01/26 08:33:57;;;;;;;;;;;;;;;6.46;65.62;103113.28;7364673;19;20643;-56
2023/01/26 08:36:23;;;;;;;;;;;;;;;6.41;65.73;103112.25;7363945;19;19940;-56
2023/01/26 08:38:48;;;;;;;;;;;;;;;6.38;65.54;103114.72;7366092;19;19911;-57
2023/01/26 08:41:14;;;;;;;;;;;;;;;6.34;65.75;103112.88;7364171;19;20598;-56
2023/01/26 08:43:39;;;;;;;;;;;;;;;6.31;65.65;103120.56;7362000;19;19914;-56
2023/01/26 08:46:05;;;;;;;;;;;;;;;6.29;66.02;103117.03;7362690;19;19930;-56
2023/01/26 08:48:30;;;;;;;;;;;;;;;6.29;66.26;103127.41;7363430;19;19922;-55
2023/01/26 08:50:57;;;;;;;;;;;;;;;6.29;66.34;103122.22;7351400;19;20280;-54
2023/01/26 08:53:23;;;;;;;;;;;;;;;6.30;66.55;103123.97;7357350;19;19926;-56
2023/01/26 08:55:48;;;;;;;;;;;;;;;6.32;66.16;103127.50;7365820;19;20610;-56
2023/01/26 08:58:13;;;;;;;;;;;;;;;6.37;66.71;103127.66;7363216;19;19939;-56
2023/01/26 09:00:38;;;;;;;;;;;;;;;6.39;66.49;103132.09;7365688;19;19937;-56
2023/01/26 09:03:04;;;;;;;;;;;;;;;6.44;66.77;103133.13;7363505;19;19922;-56
2023/01/26 09:05:37;;;;;;;;;;;;;;;6.48;66.88;103134.97;7360442;19;19922;-57
2023/01/26 09:08:02;;;;;;;;;;;;;;;6.54;66.92;103123.00;7365015;19;19950;-56
2023/01/26 09:10:28;;;;;;;;;;;;;;;6.54;66.78;103125.59;7362085;19;20254;-56
2023/01/26 09:12:53;;;;;;;;;;;;;;;6.64;66.99;103146.75;7361224;19;19986;-57
2023/01/26 09:15:18;;;;;;;;;;;;;;;6.69;66.63;103150.38;7338312;19;19918;-54
2023/01/26 09:17:46;;;;;;;;;;;;;;;6.76;66.83;103146.25;7362684;19;19922;-57
2023/01/26 09:20:12;;;;;;;;;;;;;;;6.81;66.75;103149.88;7363678;19;19998;-56
2023/01/26 09:22:38;;;;;;;;;;;;;;;6.86;66.60;103157.84;7364946;19;19988;-56
2023/01/26 09:25:03;;;;;;;;;;;;;;;6.92;66.93;103156.31;7365095;19;19967;-57
2023/01/26 09:27:28;;;;;;;;;;;;;;;7.00;67.26;103146.16;7358935;19;20318;-55
2023/01/26 09:29:54;;;;;;;;;;;;;;;7.11;67.12;103149.97;7364493;19;19945;-57
2023/01/26 09:32:20;;;;;;;;;;;;;;;7.22;67.44;103138.19;7365777;19;19933;-56
2023/01/26 09:34:45;;;;;;;;;;;;;;;7.36;67.32;103150.72;7363692;19;19918;-57
2023/01/26 09:37:10;;;;;;;;;;;;;;;7.43;66.98;103153.53;7364995;19;19922;-57
2023/01/26 09:39:35;;;;;;;;;;;;;;;7.50;67.22;103159.78;7364220;19;20445;-55
2023/01/26 09:42:13;;;;;;;;;;;;;;;7.57;66.85;103160.88;7364045;19;19918;-56
2023/01/26 09:44:48;;;;;;;;;;;;;;;7.61;66.91;103167.94;7356558;19;19991;-55
2023/01/26 09:47:22;;;;;;;;;;;;;;;7.63;67.14;103161.03;7366653;19;19915;-57
2023/01/26 09:49:58;;;;;;;;;;;;;;;7.66;66.81;103162.00;7360885;19;19918;-55
2023/01/26 09:52:28;;;;;;;;;;;;;;;7.69;66.95;103171.59;7366003;19;19935;-55
2023/01/26 09:54:56;;;;;;;;;;;;;;;7.71;67.03;103164.75;7357680;19;19945;-56
2023/01/26 09:57:44;;;;;;;;;;;;;;;7.72;66.73;103162.19;7362314;19;19919;-56
2023/01/26 10:00:20;;;;;;;;;;;;;;;7.73;67.00;103163.94;7358636;19;19929;-56
2023/01/26 10:02:48;;;;;;;;;;;;;;;7.80;67.03;103165.00;7357047;19;20398;-56
2023/01/26 10:05:34;;;;;;;;;;;;;;;7.92;67.22;103165.34;7358696;19;19949;-57
2023/01/26 10:08:00;;;;;;;;;;;;;;;8.12;67.50;103173.69;7357459;19;19952;-57
2023/01/26 10:10:27;;;;;;;;;;;;;;;8.33;68.01;103170.78;7362481;19;20131;-57
2023/01/26 10:12:54;;;;;;;;;;;;;;;8.58;68.09;103170.59;7363507;19;19933;-55
2023/01/26 10:15:22;;;;;;;;;;;;;;;8.86;68.56;103176.47;7363417;19;20361;-56
2023/01/26 10:17:48;;;;;;;;;;;;;;;9.16;68.42;103172.84;7364105;19;19923;-55
2023/01/26 10:20:27;;;;;;;;;;;;;;;9.43;68.16;103165.63;7360279;19;19947;-57
2023/01/26 10:23:00;;;;;;;;;;;;;;;9.74;67.90;103172.38;7361592;19;20475;-55
2023/01/26 10:25:29;;;;;;;;;;;;;;;10.04;67.97;103169.50;7364952;19;19925;-55
2023/01/26 10:27:54;;;;;;;;;;;;;;;10.32;68.38;103176.13;7363057;19;20513;-56
2023/01/26 10:30:20;;;;;;;;;;;;;;;10.56;67.98;103178.28;7363057;19;20009;-55
2023/01/26 10:32:46;;;;;;;;;;;;;;;10.78;67.56;103189.09;7363601;19;19918;-57
2023/01/26 10:35:19;;;;;;;;;;;;;;;10.97;67.89;103179.81;7363405;19;20382;-56
2023/01/26 10:37:45;;;;;;;;;;;;;;;11.16;67.58;103182.72;7363722;19;19923;-56
2023/01/26 10:40:10;;;;;;;;;;;;;;;11.37;67.61;103182.16;7364082;19;21279;-57
2023/01/26 10:42:36;;;;;;;;;;;;;;;11.58;67.59;103180.69;7362969;19;19933;-57
2023/01/26 10:45:20;;;;;;;;;;;;;;;11.82;67.51;103193.22;7362321;19;21020;-57
2023/01/26 10:48:01;;;;;;;;;;;;;;;12.10;67.77;103187.44;7364616;19;19918;-57
2023/01/26 10:50:26;;;;;;;;;;;;;;;12.41;67.99;103190.34;7359455;19;19915;-57
2023/01/26 10:52:58;;;;;;;;;;;;;;;12.71;67.37;103188.00;7362896;19;20383;-57
2023/01/26 10:55:24;;;;;;;;;;;;;;;13.03;67.69;103181.25;7358989;19;19927;-57
2023/01/26 10:57:49;;;;;;;;;;;;;;;13.32;67.47;103181.47;7361956;19;19931;-55
2023/01/26 11:00:22;;;;;;;;;;;;;;;13.59;67.64;103186.00;7362363;19;19931;-57
2023/01/26 11:02:49;;;;;;;;;;;;;;;13.88;66.92;103188.72;7363467;19;20617;-57
2023/01/26 11:05:17;;;;;;;;;;;;;;;14.14;66.94;103192.31;7362122;19;19951;-57
2023/01/26 11:07:43;;;;;;;;;;;;;;;14.41;66.67;103203.75;7360119;19;20331;-57
2023/01/26 11:10:22;;;;;;;;;;;;;;;14.60;66.14;103192.41;7354337;19;20952;-56
2023/01/26 11:12:48;;;;;;;;;;;;;;;14.81;66.23;103203.81;7358926;19;20343;-57
2023/01/26 11:15:16;;;;;;;;;;;;;;;14.92;65.58;103205.53;7356278;19;20026;-56
2023/01/26 11:18:02;;;;;;;;;;;;;;;14.98;65.05;103205.53;7356737;19;19914;-57
2023/01/26 11:20:33;;;;;;;;;;;;;;;14.96;64.31;103216.94;7355148;19;19914;-57
2023/01/26 11:23:14;;;;;;;;;;;;;;;14.84;64.13;103202.03;7355382;19;19927;-57
2023/01/26 11:25:42;;;;;;;;;;;;;;;14.66;63.81;103210.81;7356592;19;19926;-57
2023/01/26 11:28:08;;;;;;;;;;;;;;;14.47;63.59;103203.75;7355662;19;20346;-57
2023/01/26 11:30:54;;;;;;;;;;;;;;;14.28;63.49;103202.84;7355920;19;19919;-57
2023/01/26 11:33:34;;;;;;;;;;;;;;;14.06;63.11;103199.28;7355523;19;19910;-57
2023/01/26 11:36:05;;;;;;;;;;;;;;;13.87;62.90;103200.97;7354263;19;19922;-57
2023/01/26 11:38:39;;;;;;;;;;;;;;;13.69;62.91;103199.16;7354425;19;19923;-56
2023/01/26 11:41:23;;;;;;;;;;;;;;;13.56;63.17;103192.09;7354589;19;20278;-57
2023/01/26 11:43:48;;;;;;;;;;;;;;;13.46;63.36;103196.41;7365053;19;19926;-57
2023/01/26 11:46:13;;;;;;;;;;;;;;;13.42;63.50;103199.88;7365528;19;19915;-57
2023/01/26 11:48:57;;;;;;;;;;;;;;;13.45;64.18;103199.03;7364037;19;19925;-56
2023/01/26 11:51:34;;;;;;;;;;;;;;;13.52;64.22;103195.56;7361969;19;20026;-57
2023/01/26 11:54:05;;;;;;;;;;;;;;;13.62;64.45;103192.13;7360380;19;19927;-56
2023/01/26 11:56:33;;;;;;;;;;;;;;;13.69;64.30;103183.41;7364917;19;19932;-54
2023/01/26 11:59:10;;;;;;;;;;;;;;;13.73;63.73;103185.16;7367369;19;19922;-57
2023/01/26 12:01:48;;;;;;;;;;;;;;;13.80;63.78;103169.44;7364526;19;20410;-55
2023/01/26 12:04:17;;;;;;;;;;;;;;;13.85;63.58;103165.09;7364079;19;19914;-57
2023/01/26 12:06:44;;;;;;;;;;;;;;;13.94;64.24;103159.88;7363334;19;20731;-56
2023/01/26 12:09:35;;;;;;;;;;;;;;;14.04;64.05;103169.53;7363236;19;19927;-57
2023/01/26 12:12:03;;;;;;;;;;;;;;;14.22;63.96;103173.91;7262044;19;2004363;-56
2023/01/26 12:14:29;;;;;;;;;;;;;;;14.40;64.58;103167.81;7362682;19;19970;-57
2023/01/26 12:17:14;;;;;;;;;;;;;;;14.59;64.51;103169.59;7365767;19;19991;-57
2023/01/26 12:19:46;;;;;;;;;;;;;;;14.83;64.21;103163.44;7363983;19;20584;-57
2023/01/26 12:22:31;;;;;;;;;;;;;;;15.06;64.27;103150.28;7363131;19;19925;-55
2023/01/26 12:25:04;;;;;;;;;;;;;;;15.35;63.93;103157.19;7361453;19;19919;-57
2023/01/26 12:27:41;;;;;;;;;;;;;;;15.59;63.39;103162.38;7364202;19;19935;-57
2023/01/26 12:30:09;;;;;;;;;;;;;;;15.79;62.83;103160.53;7365073;19;20016;-56
2023/01/26 12:32:34;;;;;;;;;;;;;;;15.96;62.46;103162.22;7364281;19;20369;-56
2023/01/26 12:34:59;;;;;;;;;;;;;;;16.12;63.19;103150.72;7365276;19;19919;-57
2023/01/26 12:37:24;;;;;;;;;;;;;;;16.28;62.84;103149.72;7364696;19;19927;-57
2023/01/26 12:39:50;;;;;;;;;;;;;;;16.45;63.18;103140.78;7365102;19;19915;-57
2023/01/26 12:42:15;;;;;;;;;;;;;;;16.57;62.11;103144.22;7362898;19;19915;-56
2023/01/26 12:44:42;;;;;;;;;;;;;;;16.67;61.85;103139.69;7363828;19;19923;-56
2023/01/26 12:47:07;;;;;;;;;;;;;;;16.76;61.46;103142.28;7362150;19;19939;-56
2023/01/26 12:49:55;;;;;;;;;;;;;;;16.80;61.07;103137.88;7361798;19;19911;-57
2023/01/26 12:52:23;;;;;;;;;;;;;;;16.80;60.13;103136.09;7359543;19;19935;-56
2023/01/26 12:55:01;;;;;;;;;;;;;;;16.77;59.69;103125.56;7361473;19;19994;-56
2023/01/26 12:57:33;;;;;;;;;;;;;;;16.76;60.21;103125.59;7363190;19;19922;-56
2023/01/26 13:00:31;;;;;;;;;;;;;;;16.75;60.04;103118.56;7354494;19;20254;-55
2023/01/26 13:02:59;;;;;;;;;;;;;;;16.71;59.03;103127.34;7249356;19;2004541;-57
2023/01/26 13:05:32;;;;;;;;;;;;;;;16.65;59.34;103122.16;7356627;19;20485;-57
2023/01/26 13:07:58;;;;;;;;;;;;;;;16.60;59.58;103119.53;7358896;19;19918;-56
2023/01/26 13:10:24;;;;;;;;;;;;;;;16.52;59.01;103108.19;7357486;19;20245;-56
2023/01/26 13:13:00;;;;;;;;;;;;;;;16.45;59.19;103110.00;7363553;19;19915;-57
2023/01/26 13:15:29;;;;;;;;;;;;;;;16.38;58.91;103108.31;7363638;19;19915;-57
2023/01/26 13:17:56;;;;;;;;;;;;;;;16.31;58.69;103101.34;7360382;19;19947;-57
2023/01/26 13:20:39;;;;;;;;;;;;;;;16.27;58.11;103103.16;7360154;19;19998;-56